Helios Highway — C6BO7 — position and weather

sailwx.info

Track history (hours):
 
Tides and Currents Weather Stations Pressure Air Temp Water Temp Dewpoint Dewpoint Depression Visibility Wind Speed Wind Dir Waves Ship Positions

Helios Highway

Last reported at 2018-Jul-29 07:38 UTC. Time now 2018-Aug-16 08:45 UTC.
Position N 01°30' E 103°08'.
Warning: this ship's position is 18 days out of date.

Length 200 m; draft 9.5 m.

Type: Cargo ship. MMSI: 311000321.

Date/timePositionNaut miles runAvg speedWind from/ knotsBaromVisibWave heightAir tempDewpointWater temp
2018-Jul-29 07:38N 01°30' E 103°08'317.8
2018-Jul-29 07:26N 01°28' E 103°10'817.3
2018-Jul-29 06:59N 01°22' E 103°16'816.9
2018-Jul-29 06:29N 01°17' E 103°23'815.4
2018-Jul-29 05:59N 01°13' E 103°29'713.9
2018-Jul-29 05:31N 01°12' E 103°36'510.0
2018-Jul-29 05:00N 01°13' E 103°41'611.6
2018-Jul-29 04:30N 01°17' E 103°45'0 0.4
2018-Jul-29 04:00N 01°17' E 103°45'0 0.0
2018-Jul-29 03:30N 01°17' E 103°45'0 0.0
2018-Jul-29 03:00N 01°17' E 103°45'0 0.0
2018-Jul-29 02:30N 01°17' E 103°45'0 0.0
2018-Jul-29 01:58N 01°17' E 103°45'0 0.0
2018-Jul-29 01:30N 01°17' E 103°45'0 0.0
2018-Jul-29 01:00N 01°17' E 103°45'0 0.0
2018-Jul-29 00:30N 01°17' E 103°45'0 0.0
2018-Jul-29 00:00N 01°17' E 103°45'0 0.0
2018-Jul-28 23:30N 01°17' E 103°45'0 0.0
2018-Jul-28 23:00N 01°17' E 103°45'0 0.0
2018-Jul-28 22:30N 01°17' E 103°45'0 0.0
2018-Jul-28 21:57N 01°17' E 103°45'0 0.0
2018-Jul-28 21:30N 01°17' E 103°45'0 0.0
2018-Jul-28 21:00N 01°17' E 103°45'0 0.0
2018-Jul-28 20:30N 01°17' E 103°45'0 0.0
2018-Jul-28 19:57N 01°17' E 103°45'0 0.0
2018-Jul-28 19:27N 01°17' E 103°45'0 0.0
2018-Jul-28 19:00N 01°17' E 103°45'0 0.0
2018-Jul-28 18:27N 01°17' E 103°45'0 0.0
2018-Jul-28 17:57N 01°17' E 103°45'0 0.0
2018-Jul-28 17:30N 01°17' E 103°45'0 0.0
2018-Jul-28 17:00N 01°17' E 103°45'0 0.2
2018-Jul-28 16:30N 01°17' E 103°45'1 2.4
2018-Jul-28 16:01N 01°16' E 103°46'5 9.9
2018-Jul-28 15:30N 01°13' E 103°49'510.7
2018-Jul-28 15:00N 01°14' E 103°54'4 7.3
2018-Jul-28 14:30N 01°15' E 103°58'5 9.6
2018-Jul-28 14:01N 01°16' E 104°03'713.6
2018-Jul-28 13:30N 01°17' E 104°09'713.2
2018-Jul-28 12:59N 01°18' E 104°16'612.9
2018-Jul-28 12:30N 01°20' E 104°22'714.4
2018-Jul-28 11:59N 01°26' E 104°27'  
2018-Jul-20 20:09N 34°51' E 139°40'318.4
2018-Jul-20 20:00N 34°53' E 139°41'917.7
2018-Jul-20 19:30N 35°02' E 139°43'815.7
2018-Jul-20 19:00N 35°09' E 139°45'510.6
2018-Jul-20 18:31N 35°14' E 139°46'611.8
2018-Jul-20 18:00N 35°20' E 139°43'612.7
2018-Jul-20 17:31N 35°26' E 139°42'2 3.6
2018-Jul-20 17:00N 35°27' E 139°41'0 0.0
2018-Jul-20 16:28N 35°27' E 139°41'0 0.0
2018-Jul-20 15:58N 35°27' E 139°41'0 0.0
2018-Jul-20 15:28N 35°27' E 139°41'0 0.0
2018-Jul-20 14:58N 35°27' E 139°41'0 0.0
2018-Jul-20 14:28N 35°27' E 139°41'0 0.0
2018-Jul-20 13:58N 35°27' E 139°41'0 0.0
2018-Jul-20 13:28N 35°27' E 139°41'0 0.0
2018-Jul-20 12:58N 35°27' E 139°41'0 0.0
2018-Jul-20 12:28N 35°27' E 139°41'0 0.0
2018-Jul-20 11:58N 35°27' E 139°41'0 0.0
2018-Jul-20 11:28N 35°27' E 139°41'0 0.0
2018-Jul-20 11:01N 35°27' E 139°41'0 0.0
2018-Jul-20 10:28N 35°27' E 139°41'0 0.0
2018-Jul-20 09:58N 35°27' E 139°41'0 0.0
2018-Jul-20 09:25N 35°27' E 139°41'0 0.0
2018-Jul-20 09:01N 35°27' E 139°41'2 3.6
2018-Jul-20 08:31N 35°26' E 139°43'3 6.5
2018-Jul-20 08:01N 35°23' E 139°43'612.2
2018-Jul-20 07:30N 35°17' E 139°45'612.2
2018-Jul-20 07:00N 35°11' E 139°47'5 9.1
2018-Jul-20 06:31N 35°07' E 139°44'5 9.1
2018-Jul-20 06:00N 35°03' E 139°42'611.9
2018-Jul-20 05:31N 34°57' E 139°40'612.6
2018-Jul-20 05:00N 34°51' E 139°37'  
Track history (hours):
 
Tides and Currents Weather Stations Pressure Air Temp Water Temp Dewpoint Dewpoint Depression Visibility Wind Speed Wind Dir Waves Ship Positions

Helios Highway

Last reported at 2018-Jul-29 07:38 UTC. Time now 2018-Aug-16 08:45 UTC.
Position N 01°30' E 103°08'.
Warning: this ship's position is 18 days out of date.

Length 200 m; draft 9.5 m.

Type: Cargo ship. MMSI: 311000321.

Date/timePositionNaut miles runAvg speedWind from/ knotsBaromVisibWave heightAir tempDewpointWater temp
2018-Jul-29 07:38N 01°30' E 103°08'317.8
2018-Jul-29 07:26N 01°28' E 103°10'817.3
2018-Jul-29 06:59N 01°22' E 103°16'816.9
2018-Jul-29 06:29N 01°17' E 103°23'815.4
2018-Jul-29 05:59N 01°13' E 103°29'713.9
2018-Jul-29 05:31N 01°12' E 103°36'510.0
2018-Jul-29 05:00N 01°13' E 103°41'611.6
2018-Jul-29 04:30N 01°17' E 103°45'0 0.4
2018-Jul-29 04:00N 01°17' E 103°45'0 0.0
2018-Jul-29 03:30N 01°17' E 103°45'0 0.0
2018-Jul-29 03:00N 01°17' E 103°45'0 0.0
2018-Jul-29 02:30N 01°17' E 103°45'0 0.0
2018-Jul-29 01:58N 01°17' E 103°45'0 0.0
2018-Jul-29 01:30N 01°17' E 103°45'0 0.0
2018-Jul-29 01:00N 01°17' E 103°45'0 0.0
2018-Jul-29 00:30N 01°17' E 103°45'0 0.0
2018-Jul-29 00:00N 01°17' E 103°45'0 0.0
2018-Jul-28 23:30N 01°17' E 103°45'0 0.0
2018-Jul-28 23:00N 01°17' E 103°45'0 0.0
2018-Jul-28 22:30N 01°17' E 103°45'0 0.0
2018-Jul-28 21:57N 01°17' E 103°45'0 0.0
2018-Jul-28 21:30N 01°17' E 103°45'0 0.0
2018-Jul-28 21:00N 01°17' E 103°45'0 0.0
2018-Jul-28 20:30N 01°17' E 103°45'0 0.0
2018-Jul-28 19:57N 01°17' E 103°45'0 0.0
2018-Jul-28 19:27N 01°17' E 103°45'0 0.0
2018-Jul-28 19:00N 01°17' E 103°45'0 0.0
2018-Jul-28 18:27N 01°17' E 103°45'0 0.0
2018-Jul-28 17:57N 01°17' E 103°45'0 0.0
2018-Jul-28 17:30N 01°17' E 103°45'0 0.0
2018-Jul-28 17:00N 01°17' E 103°45'0 0.2
2018-Jul-28 16:30N 01°17' E 103°45'1 2.4
2018-Jul-28 16:01N 01°16' E 103°46'5 9.9
2018-Jul-28 15:30N 01°13' E 103°49'510.7
2018-Jul-28 15:00N 01°14' E 103°54'4 7.3
2018-Jul-28 14:30N 01°15' E 103°58'5 9.6
2018-Jul-28 14:01N 01°16' E 104°03'713.6
2018-Jul-28 13:30N 01°17' E 104°09'713.2
2018-Jul-28 12:59N 01°18' E 104°16'612.9
2018-Jul-28 12:30N 01°20' E 104°22'714.4
2018-Jul-28 11:59N 01°26' E 104°27'  
2018-Jul-20 20:09N 34°51' E 139°40'318.4
2018-Jul-20 20:00N 34°53' E 139°41'917.7
2018-Jul-20 19:30N 35°02' E 139°43'815.7
2018-Jul-20 19:00N 35°09' E 139°45'510.6
2018-Jul-20 18:31N 35°14' E 139°46'611.8
2018-Jul-20 18:00N 35°20' E 139°43'612.7
2018-Jul-20 17:31N 35°26' E 139°42'2 3.6
2018-Jul-20 17:00N 35°27' E 139°41'0 0.0
2018-Jul-20 16:28N 35°27' E 139°41'0 0.0
2018-Jul-20 15:58N 35°27' E 139°41'0 0.0
2018-Jul-20 15:28N 35°27' E 139°41'0 0.0
2018-Jul-20 14:58N 35°27' E 139°41'0 0.0
2018-Jul-20 14:28N 35°27' E 139°41'0 0.0
2018-Jul-20 13:58N 35°27' E 139°41'0 0.0
2018-Jul-20 13:28N 35°27' E 139°41'0 0.0
2018-Jul-20 12:58N 35°27' E 139°41'0 0.0
2018-Jul-20 12:28N 35°27' E 139°41'0 0.0
2018-Jul-20 11:58N 35°27' E 139°41'0 0.0
2018-Jul-20 11:28N 35°27' E 139°41'0 0.0
2018-Jul-20 11:01N 35°27' E 139°41'0 0.0
2018-Jul-20 10:28N 35°27' E 139°41'0 0.0
2018-Jul-20 09:58N 35°27' E 139°41'0 0.0
2018-Jul-20 09:25N 35°27' E 139°41'0 0.0
2018-Jul-20 09:01N 35°27' E 139°41'2 3.6
2018-Jul-20 08:31N 35°26' E 139°43'3 6.5
2018-Jul-20 08:01N 35°23' E 139°43'612.2
2018-Jul-20 07:30N 35°17' E 139°45'612.2
2018-Jul-20 07:00N 35°11' E 139°47'5 9.1
2018-Jul-20 06:31N 35°07' E 139°44'5 9.1
2018-Jul-20 06:00N 35°03' E 139°42'611.9
2018-Jul-20 05:31N 34°57' E 139°40'612.6
2018-Jul-20 05:00N 34°51' E 139°37'  

Dump ship's entire track history